createdAt,value
2023-03-18T00:00:20.418Z,0
2023-03-18T00:04:23.372Z,0
2023-03-18T00:06:24.764Z,0
2023-03-18T00:08:26.308Z,0
2023-03-18T00:10:28.193Z,0
2023-03-18T00:14:31.303Z,0
2023-03-18T00:16:32.596Z,0
2023-03-18T00:18:33.623Z,0
2023-03-18T00:20:35.412Z,0
2023-03-18T00:22:37.006Z,0
2023-03-18T00:24:38.258Z,0
2023-03-18T00:26:39.939Z,0
2023-03-18T00:28:41.429Z,0
2023-03-18T00:30:43.042Z,0
2023-03-18T00:32:44.443Z,0
2023-03-18T00:36:47.312Z,0
2023-03-18T00:38:48.599Z,0
2023-03-18T00:40:49.751Z,0
2023-03-18T00:42:52.390Z,0
2023-03-18T00:46:54.922Z,0
2023-03-18T00:48:56.753Z,0
2023-03-18T00:50:57.801Z,0
2023-03-18T00:52:59.112Z,0
2023-03-18T00:57:01.718Z,0
2023-03-18T00:59:03.600Z,0.982
2023-03-18T01:01:04.734Z,0
2023-03-18T01:03:06.156Z,0
2023-03-18T01:05:08.004Z,0
2023-03-18T01:07:09.732Z,0
2023-03-18T01:09:11.452Z,0
2023-03-18T01:11:13.326Z,0
2023-03-18T01:13:15.226Z,0
2023-03-18T01:15:16.437Z,0
2023-03-18T01:17:18.293Z,0
2023-03-18T01:19:19.848Z,0
2023-03-18T01:21:21.426Z,0
2023-03-18T01:23:23.253Z,0
2023-03-18T01:25:24.879Z,0
2023-03-18T01:29:28.171Z,0
2023-03-18T01:31:29.601Z,1.825
2023-03-18T01:33:31.434Z,1.544
2023-03-18T01:35:33.057Z,2.106
2023-03-18T01:37:34.486Z,1.544
2023-03-18T01:39:35.899Z,0
2023-03-18T01:41:37.590Z,0
2023-03-18T01:43:39.100Z,0
2023-03-18T01:45:40.919Z,0
2023-03-18T01:47:42.353Z,0
2023-03-18T01:49:44.200Z,0
2023-03-18T01:51:45.789Z,0
2023-03-18T01:53:47.018Z,0
2023-03-18T01:55:48.700Z,0
2023-03-18T01:57:50.536Z,0
2023-03-18T01:59:51.839Z,0
2023-03-18T02:01:53.313Z,0
2023-03-18T02:03:54.579Z,0
2023-03-18T02:05:55.809Z,0
2023-03-18T02:07:57.563Z,0
2023-03-18T02:09:58.682Z,0
2023-03-18T02:12:00.156Z,0
2023-03-18T02:14:01.323Z,0
2023-03-18T02:16:03.131Z,0
2023-03-18T02:18:04.991Z,0
2023-03-18T02:20:06.055Z,0
2023-03-18T02:22:07.687Z,0
2023-03-18T02:24:09.334Z,0
2023-03-18T02:26:10.679Z,0
2023-03-18T02:28:11.862Z,0
2023-03-18T02:30:13.488Z,0
2023-03-18T02:32:14.788Z,0
2023-03-18T02:34:16.506Z,0
2023-03-18T02:36:18.275Z,0
2023-03-18T02:38:19.726Z,0
2023-03-18T02:40:21.320Z,0
2023-03-18T02:42:23.111Z,0
2023-03-18T02:44:24.286Z,0
2023-03-18T02:46:25.945Z,0
2023-03-18T02:48:27.270Z,0
2023-03-18T02:50:29.303Z,0
2023-03-18T02:52:30.684Z,0
2023-03-18T02:54:32.591Z,0
2023-03-18T02:56:34.234Z,0
2023-03-18T02:58:35.938Z,0
2023-03-18T03:00:37.665Z,0
2023-03-18T03:02:39.085Z,0
2023-03-18T03:04:40.499Z,0
2023-03-18T03:06:42.060Z,0
2023-03-18T03:08:44.001Z,0
2023-03-18T03:10:45.343Z,0
2023-03-18T03:12:46.313Z,0
2023-03-18T03:14:47.661Z,0
2023-03-18T03:16:49.239Z,0
2023-03-18T03:18:50.472Z,0
2023-03-18T03:20:52.265Z,0
2023-03-18T03:22:53.735Z,0
2023-03-18T03:24:55.405Z,0
2023-03-18T03:26:56.906Z,0
2023-03-18T03:28:58.322Z,0
2023-03-18T03:31:00.298Z,0
2023-03-18T03:33:01.540Z,0
2023-03-18T03:35:02.390Z,0
2023-03-18T03:37:04.012Z,0
2023-03-18T03:39:05.386Z,0
2023-03-18T03:41:06.995Z,0
2023-03-18T03:43:08.889Z,0
2023-03-18T03:45:10.338Z,0
2023-03-18T03:47:11.772Z,0
2023-03-18T03:49:12.839Z,0
2023-03-18T03:53:15.526Z,0
2023-03-18T03:55:17.344Z,0
2023-03-18T03:57:19.325Z,0
2023-03-18T03:59:20.892Z,0
2023-03-18T04:03:23.770Z,0
2023-03-18T04:05:24.933Z,0
2023-03-18T04:07:26.090Z,0
2023-03-18T04:09:27.786Z,0
2023-03-18T04:11:29.690Z,1.544
2023-03-18T04:13:31.379Z,0
2023-03-18T04:15:32.575Z,0
2023-03-18T04:17:34.450Z,0
2023-03-18T04:19:36.061Z,0
2023-03-18T04:21:37.557Z,0
2023-03-18T04:23:38.977Z,0
2023-03-18T04:25:40.654Z,0
2023-03-18T04:27:42.520Z,0
2023-03-18T04:30:27.911Z,0
2023-03-18T04:32:29.435Z,0
2023-03-18T04:34:31.261Z,0
2023-03-18T04:36:33.032Z,0
2023-03-18T04:40:35.607Z,0
2023-03-18T04:42:37.476Z,0
2023-03-18T04:44:39.421Z,0
2023-03-18T04:46:41.341Z,0
2023-03-18T04:48:43.000Z,0
2023-03-18T04:50:44.237Z,0
2023-03-18T04:52:45.371Z,0
2023-03-18T04:54:46.359Z,0
2023-03-18T04:56:47.477Z,0
2023-03-18T04:58:48.955Z,0
2023-03-18T05:00:50.281Z,0
2023-03-18T05:02:51.336Z,0
2023-03-18T05:04:52.695Z,0
2023-03-18T05:06:54.156Z,0
2023-03-18T05:08:55.209Z,0
2023-03-18T05:10:56.240Z,0
2023-03-18T05:12:57.947Z,0
2023-03-18T05:14:58.957Z,0
2023-03-18T05:17:00.920Z,0
2023-03-18T05:19:02.533Z,0
2023-03-18T05:21:03.788Z,0
2023-03-18T05:23:05.575Z,0
2023-03-18T05:25:06.739Z,0
2023-03-18T05:27:08.644Z,0
2023-03-18T05:29:10.131Z,0
2023-03-18T05:31:11.413Z,0
2023-03-18T05:33:12.720Z,0
2023-03-18T05:35:14.152Z,0
2023-03-18T05:37:15.281Z,0
2023-03-18T05:39:17.248Z,0
2023-03-18T05:41:18.622Z,0
2023-03-18T05:43:19.930Z,0
2023-03-18T05:45:21.225Z,0
2023-03-18T05:47:22.344Z,0
2023-03-18T05:49:23.408Z,0
2023-03-18T05:51:25.330Z,0
2023-03-18T05:53:27.121Z,0
2023-03-18T05:55:28.155Z,0
2023-03-18T05:57:29.179Z,0
2023-03-18T05:59:30.895Z,0
2023-03-18T06:01:32.502Z,0
2023-03-18T06:03:34.058Z,0
2023-03-18T06:05:36.024Z,0
2023-03-18T06:07:37.463Z,0
2023-03-18T06:09:39.310Z,0
2023-03-18T06:11:40.952Z,0
2023-03-18T06:13:42.865Z,0
2023-03-18T06:15:44.407Z,0
2023-03-18T06:17:45.454Z,0
2023-03-18T06:19:46.843Z,0
2023-03-18T06:21:48.646Z,0
2023-03-18T06:23:50.362Z,0
2023-03-18T06:25:51.390Z,0
2023-03-18T06:27:53.189Z,0
2023-03-18T06:29:54.337Z,0
2023-03-18T06:31:55.697Z,0
2023-03-18T06:33:57.796Z,0
2023-03-18T06:35:59.538Z,0
2023-03-18T06:38:01.103Z,0
2023-03-18T06:40:02.319Z,0
2023-03-18T06:42:03.411Z,0
2023-03-18T06:44:05.226Z,0
2023-03-18T06:46:06.311Z,0
2023-03-18T06:48:07.225Z,0
2023-03-18T06:50:08.457Z,0
2023-03-18T06:54:11.756Z,0
2023-03-18T06:56:13.515Z,0
2023-03-18T06:58:14.989Z,0
2023-03-18T07:00:16.714Z,0
2023-03-18T07:04:19.983Z,0
2023-03-18T07:06:20.967Z,0
2023-03-18T07:08:21.997Z,0
2023-03-18T07:10:23.585Z,0
2023-03-18T07:12:24.818Z,0
2023-03-18T07:14:25.952Z,0
2023-03-18T07:16:26.967Z,0
2023-03-18T07:18:28.374Z,0
2023-03-18T07:20:30.252Z,0
2023-03-18T07:22:31.213Z,0
2023-03-18T07:26:34.367Z,0
2023-03-18T07:28:36.218Z,0
2023-03-18T07:30:37.733Z,0
2023-03-18T07:32:39.096Z,0
2023-03-18T07:36:41.307Z,0
2023-03-18T07:38:42.663Z,0
2023-03-18T07:40:43.555Z,0
2023-03-18T07:42:45.373Z,0
2023-03-18T07:46:48.305Z,0
2023-03-18T07:48:49.444Z,0
2023-03-18T07:50:50.680Z,0
2023-03-18T07:52:52.146Z,0
2023-03-18T07:54:53.275Z,1.544
2023-03-18T07:56:54.606Z,0
2023-03-18T07:58:55.274Z,0
2023-03-18T08:00:56.658Z,0
2023-03-18T08:02:57.827Z,0
2023-03-18T08:04:59.399Z,0
2023-03-18T08:07:00.599Z,0.28
2023-03-18T08:09:02.301Z,0
2023-03-18T08:11:03.244Z,0
2023-03-18T08:13:04.353Z,0
2023-03-18T08:15:06.120Z,1.123
2023-03-18T08:17:07.079Z,0.702
2023-03-18T08:19:08.184Z,0.982
2023-03-18T08:21:09.759Z,1.825
2023-03-18T08:23:11.111Z,0.842
2023-03-18T08:25:12.131Z,0.842
2023-03-18T08:27:13.028Z,1.825
2023-03-18T08:29:14.630Z,0.702
2023-03-18T08:31:15.514Z,2.106
2023-03-18T08:35:19.661Z,1.684
2023-03-18T08:37:19.964Z,1.404
2023-03-18T08:39:21.341Z,2.527
2023-03-18T08:41:22.574Z,0
2023-03-18T08:45:25.165Z,1.263
2023-03-18T08:47:26.245Z,0
2023-03-18T08:49:27.452Z,0.561
2023-03-18T08:51:29.172Z,0.702
2023-03-18T08:53:30.036Z,0
2023-03-18T08:57:32.842Z,0.28
2023-03-18T08:59:34.313Z,3.229
2023-03-18T09:01:35.307Z,1.263
2023-03-18T09:03:36.251Z,1.825
2023-03-18T09:07:38.649Z,2.386
2023-03-18T09:09:43.786Z,0.421
2023-03-18T09:13:42.509Z,2.246
2023-03-18T09:15:43.336Z,3.369
2023-03-18T09:17:56.893Z,1.544
2023-03-18T09:19:45.624Z,1.684
2023-03-18T09:21:47.800Z,1.544
2023-03-18T09:23:48.626Z,3.088
2023-03-18T09:25:49.924Z,1.684
2023-03-18T09:27:51.366Z,3.088
2023-03-18T09:29:52.958Z,2.386
2023-03-18T09:31:53.855Z,2.386
2023-03-18T09:33:54.806Z,0.421
2023-03-18T09:35:55.630Z,0.702
2023-03-18T09:37:57.096Z,3.229
2023-03-18T09:39:58.794Z,6.318
2023-03-18T09:42:00.441Z,3.79
2023-03-18T09:44:01.519Z,1.684
2023-03-18T09:46:02.556Z,4.352
2023-03-18T09:48:04.582Z,4.633
2023-03-18T09:50:06.347Z,5.756
2023-03-18T09:52:07.951Z,4.773
2023-03-18T09:54:09.609Z,5.194
2023-03-18T09:56:10.419Z,3.65
2023-03-18T09:58:11.545Z,4.212
2023-03-18T10:00:13.021Z,2.667
2023-03-18T10:02:14.209Z,1.684
2023-03-18T10:04:15.192Z,3.65
2023-03-18T10:06:16.523Z,3.65
2023-03-18T10:08:18.074Z,3.931
2023-03-18T10:10:19.587Z,2.386
2023-03-18T10:12:20.510Z,5.475
2023-03-18T10:16:23.873Z,6.037
2023-03-18T10:18:25.339Z,4.914
2023-03-18T10:20:26.528Z,4.071
2023-03-18T10:22:27.934Z,2.527
2023-03-18T10:26:29.816Z,2.386
2023-03-18T10:28:31.447Z,4.773
2023-03-18T10:30:32.982Z,7.16
2023-03-18T10:32:46.813Z,4.352
2023-03-18T10:34:36.070Z,4.492
2023-03-18T10:36:37.788Z,5.054
2023-03-18T10:38:39.033Z,3.369
2023-03-18T10:40:39.927Z,0.561
2023-03-18T10:42:41.471Z,3.51
2023-03-18T10:44:43.233Z,3.229
2023-03-18T10:46:44.223Z,1.825
2023-03-18T10:48:45.761Z,1.263
2023-03-18T10:50:46.633Z,3.088
2023-03-18T10:52:48.183Z,1.825
2023-03-18T10:54:49.387Z,5.194
2023-03-18T10:58:52.271Z,4.352
2023-03-18T11:00:53.865Z,1.123
2023-03-18T11:02:55.722Z,6.458
2023-03-18T11:04:56.547Z,6.458
2023-03-18T11:08:59.650Z,2.808
2023-03-18T11:11:01.117Z,2.106
2023-03-18T11:13:02.673Z,3.088
2023-03-18T11:13:46.341Z,4.212
2023-03-18T11:15:47.414Z,8.283
2023-03-18T11:17:48.404Z,6.879
2023-03-18T11:19:49.461Z,5.194
2023-03-18T11:21:50.771Z,3.51
2023-03-18T11:23:53.544Z,5.335
2023-03-18T11:25:53.246Z,3.229
2023-03-18T11:27:54.216Z,0.421
2023-03-18T11:29:55.675Z,9.828
2023-03-18T11:31:56.671Z,3.51
2023-03-18T11:33:57.964Z,4.352
2023-03-18T11:35:59.488Z,1.684
2023-03-18T11:38:00.973Z,1.684
2023-03-18T11:40:02.019Z,3.931
2023-03-18T11:42:03.589Z,3.79
2023-03-18T11:44:05.038Z,2.808
2023-03-18T11:46:06.496Z,4.773
2023-03-18T11:48:07.748Z,4.071
2023-03-18T11:50:09.481Z,3.369
2023-03-18T11:52:10.534Z,3.229
2023-03-18T11:54:12.337Z,4.914
2023-03-18T11:56:13.433Z,5.756
2023-03-18T11:58:14.685Z,4.492
2023-03-18T12:02:17.611Z,3.088
2023-03-18T12:04:18.768Z,2.106
2023-03-18T12:06:19.999Z,0.842
2023-03-18T12:08:20.905Z,2.808
2023-03-18T12:10:22.607Z,2.808
2023-03-18T12:12:23.465Z,4.492
2023-03-18T12:14:25.147Z,0
2023-03-18T12:16:26.756Z,0.982
2023-03-18T12:18:28.421Z,5.896
2023-03-18T12:20:29.643Z,3.931
2023-03-18T12:22:30.983Z,4.212
2023-03-18T12:24:32.764Z,4.352
2023-03-18T12:26:34.021Z,3.369
2023-03-18T12:28:34.888Z,3.088
2023-03-18T12:30:36.335Z,2.106
2023-03-18T12:32:37.700Z,0.982
2023-03-18T12:34:38.818Z,2.106
2023-03-18T12:36:39.997Z,3.369
2023-03-18T12:38:41.223Z,4.071
2023-03-18T12:40:42.891Z,1.123
2023-03-18T12:42:44.360Z,0
2023-03-18T12:44:45.822Z,1.123
2023-03-18T12:46:46.650Z,3.229
2023-03-18T12:50:50.636Z,2.106
2023-03-18T12:52:52.137Z,2.527
2023-03-18T12:54:53.634Z,3.79
2023-03-18T12:56:54.667Z,4.352
2023-03-18T12:58:55.567Z,4.914
2023-03-18T13:00:57.398Z,4.633
2023-03-18T13:02:58.920Z,3.229
2023-03-18T13:07:00.672Z,2.667
2023-03-18T13:09:02.356Z,3.51
2023-03-18T13:11:04.086Z,2.246
2023-03-18T13:13:05.583Z,1.965
2023-03-18T13:17:08.358Z,3.088
2023-03-18T13:19:09.620Z,0.982
2023-03-18T13:21:10.622Z,1.123
2023-03-18T13:23:11.472Z,3.51
2023-03-18T13:25:13.264Z,4.212
2023-03-18T13:27:14.899Z,5.335
2023-03-18T13:29:16.545Z,1.965
2023-03-18T13:31:17.577Z,1.825
2023-03-18T13:33:19.016Z,3.931
2023-03-18T13:35:20.553Z,2.386
2023-03-18T13:37:21.822Z,1.684
2023-03-18T13:39:22.926Z,1.123
2023-03-18T13:41:24.280Z,3.369
2023-03-18T13:43:25.762Z,0
2023-03-18T13:45:26.672Z,2.948
2023-03-18T13:47:27.848Z,0
2023-03-18T13:49:29.017Z,2.527
2023-03-18T13:51:30.589Z,3.65
2023-03-18T13:53:31.897Z,2.948
2023-03-18T13:55:33.440Z,1.263
2023-03-18T13:57:34.677Z,4.773
2023-03-18T13:59:35.547Z,3.931
2023-03-18T14:01:36.671Z,5.616
2023-03-18T14:03:37.480Z,3.79
2023-03-18T14:05:38.935Z,7.3
2023-03-18T14:07:39.748Z,4.071
2023-03-18T14:09:40.784Z,3.931
2023-03-18T14:11:43.623Z,1.544
2023-03-18T14:13:43.362Z,2.246
2023-03-18T14:15:44.801Z,6.037
2023-03-18T14:17:45.780Z,4.914
2023-03-18T14:19:46.933Z,8.424
2023-03-18T14:21:48.362Z,5.054
2023-03-18T14:23:49.647Z,3.79
2023-03-18T14:25:50.434Z,3.931
2023-03-18T14:27:51.619Z,2.948
2023-03-18T14:29:52.803Z,3.088
2023-03-18T14:31:54.315Z,1.965
2023-03-18T14:33:55.749Z,2.246
2023-03-18T14:35:57.305Z,0
2023-03-18T14:37:58.917Z,0
2023-03-18T14:40:00.674Z,0.561
2023-03-18T14:42:01.816Z,4.071
2023-03-18T14:44:02.942Z,0.982
2023-03-18T14:48:05.320Z,4.071
2023-03-18T14:50:06.258Z,0.561
2023-03-18T14:52:07.192Z,1.404
2023-03-18T14:54:08.542Z,1.684
2023-03-18T14:58:11.569Z,3.51
2023-03-18T15:00:13.201Z,1.684
2023-03-18T15:02:23.479Z,3.088
2023-03-18T15:04:15.297Z,2.808
2023-03-18T15:06:16.941Z,0.28
2023-03-18T15:08:19.222Z,0
2023-03-18T15:10:19.420Z,4.914
2023-03-18T15:12:20.278Z,4.212
2023-03-18T15:14:21.660Z,4.212
2023-03-18T15:16:22.596Z,2.948
2023-03-18T15:18:24.353Z,4.492
2023-03-18T15:20:25.901Z,3.229
2023-03-18T15:22:27.129Z,2.808
2023-03-18T15:24:28.165Z,3.79
2023-03-18T15:26:29.060Z,2.246
2023-03-18T15:28:30.617Z,0.982
2023-03-18T15:30:32.402Z,5.475
2023-03-18T15:32:33.484Z,1.965
2023-03-18T15:34:34.693Z,0
2023-03-18T15:36:35.651Z,0
2023-03-18T15:38:36.822Z,2.808
2023-03-18T15:40:38.073Z,2.106
2023-03-18T15:42:39.891Z,4.352
2023-03-18T15:44:41.222Z,4.071
2023-03-18T15:46:42.947Z,1.544
2023-03-18T15:48:44.188Z,1.263
2023-03-18T15:50:45.046Z,0.842
2023-03-18T15:52:46.578Z,0
2023-03-18T15:54:47.653Z,0.14
2023-03-18T15:56:48.796Z,0
2023-03-18T15:58:50.588Z,0
2023-03-18T16:00:51.712Z,0.14
2023-03-18T16:02:53.042Z,0.14
2023-03-18T16:04:54.387Z,1.404
2023-03-18T16:06:56.043Z,0
2023-03-18T16:08:57.318Z,0
2023-03-18T16:10:58.885Z,1.965
2023-03-18T16:13:00.050Z,0.14
2023-03-18T16:15:01.767Z,0
2023-03-18T16:17:02.704Z,0.702
2023-03-18T16:19:04.264Z,2.106
2023-03-18T16:21:05.212Z,1.965
2023-03-18T16:23:06.816Z,0
2023-03-18T16:25:08.219Z,0
2023-03-18T16:29:11.567Z,0
2023-03-18T16:31:12.938Z,1.404
2023-03-18T16:33:14.466Z,0
2023-03-18T16:35:15.536Z,1.404
2023-03-18T16:39:17.955Z,0.14
2023-03-18T16:41:19.767Z,0
2023-03-18T16:43:21.585Z,0.982
2023-03-18T16:45:23.036Z,0.842
2023-03-18T16:47:24.339Z,2.106
2023-03-18T16:49:26.026Z,1.404
2023-03-18T16:51:27.511Z,2.808
2023-03-18T16:53:28.367Z,2.948
2023-03-18T16:55:29.813Z,2.386
2023-03-18T16:57:31.440Z,1.544
2023-03-18T16:59:32.956Z,2.948
2023-03-18T17:01:34.748Z,2.246
2023-03-18T17:03:35.646Z,2.808
2023-03-18T17:05:37.425Z,3.51
2023-03-18T17:07:39.148Z,1.404
2023-03-18T17:11:42.587Z,0.28
2023-03-18T17:13:44.823Z,0.14
2023-03-18T17:15:46.274Z,0.421
2023-03-18T17:17:47.172Z,0.982
2023-03-18T17:21:49.281Z,1.965
2023-03-18T17:23:50.505Z,0.842
2023-03-18T17:25:51.852Z,1.965
2023-03-18T17:27:53.694Z,0.982
2023-03-18T17:29:55.165Z,1.965
2023-03-18T17:33:58.066Z,2.106
2023-03-18T17:35:58.931Z,0.982
2023-03-18T17:38:00.600Z,0
2023-03-18T17:40:02.105Z,1.123
2023-03-18T17:44:04.488Z,0
2023-03-18T17:46:05.983Z,0
2023-03-18T17:48:07.422Z,0
2023-03-18T17:50:08.776Z,0
2023-03-18T17:54:12.033Z,0
2023-03-18T17:56:13.186Z,0.421
2023-03-18T17:58:15.052Z,2.527
2023-03-18T17:58:58.842Z,2.527
2023-03-18T18:01:00.952Z,0
2023-03-18T18:03:01.618Z,0.561
2023-03-18T18:05:03.277Z,3.931
2023-03-18T18:07:04.877Z,3.65
2023-03-18T18:09:06.285Z,3.229
2023-03-18T18:11:08.044Z,1.404
2023-03-18T18:13:09.753Z,0.702
2023-03-18T18:15:10.751Z,0.14
2023-03-18T18:17:12.461Z,0
2023-03-18T18:19:13.685Z,0
2023-03-18T18:21:15.401Z,0
2023-03-18T18:23:16.938Z,0
2023-03-18T18:25:18.046Z,4.071
2023-03-18T18:27:19.485Z,1.965
2023-03-18T18:29:21.196Z,0.702
2023-03-18T18:31:22.809Z,0
2023-03-18T18:33:24.165Z,0
2023-03-18T18:35:25.882Z,0
2023-03-18T18:37:27.537Z,0.14
2023-03-18T18:39:28.745Z,0
2023-03-18T18:41:29.937Z,0
2023-03-18T18:43:31.278Z,1.544
2023-03-18T18:45:33.279Z,0.421
2023-03-18T18:47:34.006Z,1.825
2023-03-18T18:49:35.744Z,0
2023-03-18T18:51:37.303Z,0
2023-03-18T18:53:38.291Z,0
2023-03-18T18:55:39.167Z,0
2023-03-18T18:57:40.609Z,0.14
2023-03-18T18:59:41.680Z,0
2023-03-18T19:01:42.995Z,0
2023-03-18T19:03:44.559Z,1.965
2023-03-18T19:05:45.693Z,0
2023-03-18T19:07:47.527Z,0
2023-03-18T19:09:48.691Z,0
2023-03-18T19:11:49.612Z,0
2023-03-18T19:13:50.622Z,0
2023-03-18T19:15:52.248Z,0
2023-03-18T19:17:53.208Z,0
2023-03-18T19:19:54.871Z,0
2023-03-18T19:21:56.021Z,0
2023-03-18T19:23:57.448Z,0
2023-03-18T19:25:58.745Z,0
2023-03-18T19:30:01.720Z,0
2023-03-18T19:32:03.051Z,0
2023-03-18T19:34:04.646Z,0
2023-03-18T19:36:06.138Z,0
2023-03-18T19:40:09.049Z,0
2023-03-18T19:42:10.034Z,0
2023-03-18T19:44:11.598Z,0
2023-03-18T19:46:13.265Z,0
2023-03-18T19:48:14.832Z,0
2023-03-18T19:52:18.163Z,0
2023-03-18T19:54:19.613Z,0
2023-03-18T19:56:20.740Z,0
2023-03-18T19:58:22.502Z,0
2023-03-18T20:02:24.801Z,0
2023-03-18T20:04:26.634Z,0
2023-03-18T20:06:28.398Z,0
2023-03-18T20:08:29.843Z,0
2023-03-18T20:12:32.739Z,0
2023-03-18T20:14:34.613Z,0
2023-03-18T20:16:35.949Z,0
2023-03-18T20:18:37.409Z,0
2023-03-18T20:22:40.006Z,0
2023-03-18T20:24:41.503Z,0
2023-03-18T20:26:43.292Z,0.982
2023-03-18T20:28:44.962Z,0.14
2023-03-18T20:30:46.079Z,0
2023-03-18T20:32:47.116Z,0
2023-03-18T20:34:48.698Z,0
2023-03-18T20:36:50.208Z,0
2023-03-18T20:38:51.851Z,0
2023-03-18T20:40:53.465Z,0
2023-03-18T20:42:54.627Z,0
2023-03-18T20:44:56.416Z,0
2023-03-18T20:46:58.086Z,0
2023-03-18T20:48:59.164Z,0
2023-03-18T20:51:00.287Z,0
2023-03-18T20:53:02.145Z,0
2023-03-18T20:55:03.964Z,0
2023-03-18T20:57:05.008Z,0
2023-03-18T20:59:06.816Z,0
2023-03-18T21:01:08.354Z,0
2023-03-18T21:03:09.392Z,0
2023-03-18T21:05:10.528Z,0
2023-03-18T21:07:11.825Z,0
2023-03-18T21:09:13.349Z,0
2023-03-18T21:11:15.229Z,0
2023-03-18T21:13:17.142Z,0
2023-03-18T21:15:18.264Z,0
2023-03-18T21:17:19.932Z,0
2023-03-18T21:19:21.277Z,0
2023-03-18T21:21:22.858Z,0
2023-03-18T21:23:24.432Z,0
2023-03-18T21:25:25.552Z,0
2023-03-18T21:27:27.267Z,0
2023-03-18T21:29:28.737Z,0
2023-03-18T21:31:30.578Z,0
2023-03-18T21:33:31.722Z,0
2023-03-18T21:35:33.351Z,0
2023-03-18T21:37:35.016Z,0
2023-03-18T21:39:36.479Z,0
2023-03-18T21:41:37.597Z,0
2023-03-18T21:43:38.688Z,0
2023-03-18T21:45:39.757Z,0
2023-03-18T21:47:41.373Z,0
2023-03-18T21:49:42.368Z,0
2023-03-18T21:53:44.841Z,0
2023-03-18T21:55:45.840Z,0
2023-03-18T21:57:48.925Z,0
2023-03-18T21:59:49.076Z,0
2023-03-18T22:03:51.447Z,0
2023-03-18T22:05:52.984Z,0
2023-03-18T22:07:54.004Z,0
2023-03-18T22:09:55.530Z,0
2023-03-18T22:11:56.902Z,0
2023-03-18T22:13:58.758Z,0
2023-03-18T22:16:00.241Z,0
2023-03-18T22:18:01.382Z,0
2023-03-18T22:20:03.113Z,0
2023-03-18T22:22:04.765Z,0
2023-03-18T22:24:06.024Z,0
2023-03-18T22:26:07.343Z,0
2023-03-18T22:28:08.509Z,0
2023-03-18T22:30:10.162Z,0
2023-03-18T22:32:11.496Z,0
2023-03-18T22:36:14.162Z,0
2023-03-18T22:38:15.689Z,0
2023-03-18T22:40:16.614Z,0
2023-03-18T22:42:18.427Z,0
2023-03-18T22:46:20.529Z,0
2023-03-18T22:48:21.843Z,0
2023-03-18T22:50:23.627Z,0
2023-03-18T22:52:24.546Z,0
2023-03-18T22:54:25.736Z,0
2023-03-18T22:56:26.704Z,0
2023-03-18T22:58:27.823Z,0
2023-03-18T23:00:29.526Z,0
2023-03-18T23:02:31.386Z,0
2023-03-18T23:04:33.065Z,0
2023-03-18T23:06:35.028Z,0
2023-03-18T23:08:36.202Z,0
2023-03-18T23:10:37.986Z,0
2023-03-18T23:12:39.513Z,0
2023-03-18T23:14:40.836Z,0
2023-03-18T23:16:41.828Z,0
2023-03-18T23:18:43.213Z,0
2023-03-18T23:20:44.170Z,0
2023-03-18T23:22:45.732Z,0
2023-03-18T23:24:47.291Z,0
2023-03-18T23:26:48.825Z,0
2023-03-18T23:28:50.148Z,0
2023-03-18T23:30:52.035Z,0
2023-03-18T23:32:53.915Z,0
2023-03-18T23:34:55.206Z,0
2023-03-18T23:36:56.435Z,0
2023-03-18T23:38:57.415Z,0
2023-03-18T23:40:59.343Z,0
2023-03-18T23:43:01.235Z,0
2023-03-18T23:45:02.719Z,0
2023-03-18T23:47:03.888Z,0
2023-03-18T23:49:05.097Z,0
2023-03-18T23:51:06.314Z,0
2023-03-18T23:53:07.413Z,0
2023-03-18T23:55:18.424Z,0
2023-03-18T23:57:09.949Z,0
2023-03-18T23:59:11.248Z,0
